createdAt,value
2018-10-21T00:02:21.799Z,18.23
2018-10-21T00:04:49.388Z,18.52
2018-10-21T00:07:16.969Z,19.87
2018-10-21T00:09:44.603Z,18.15
2018-10-21T00:12:12.098Z,18.32
2018-10-21T00:14:39.720Z,17.32
2018-10-21T00:17:07.251Z,18.05
2018-10-21T00:19:34.854Z,17.73
2018-10-21T00:22:02.681Z,16.37
2018-10-21T00:24:30.194Z,17.77
2018-10-21T00:26:57.799Z,17.95
2018-10-21T00:29:25.238Z,19.60
2018-10-21T00:31:52.841Z,15.98
2018-10-21T00:34:20.342Z,18.62
2018-10-21T00:36:47.901Z,17.50
2018-10-21T00:39:15.452Z,17.60
2018-10-21T00:41:43.330Z,16.77
2018-10-21T00:44:11.222Z,17.10
2018-10-21T00:46:38.793Z,17.25
2018-10-21T00:49:06.674Z,16.25
2018-10-21T00:51:34.257Z,15.72
2018-10-21T00:54:02.254Z,17.40
2018-10-21T00:56:29.834Z,15.93
2018-10-21T00:58:57.285Z,16.30
2018-10-21T01:01:24.858Z,16.93
2018-10-21T01:03:52.357Z,16.62
2018-10-21T01:06:19.948Z,16.57
2018-10-21T01:08:47.452Z,16.40
2018-10-21T01:11:14.928Z,16.35
2018-10-21T01:13:42.477Z,16.40
2018-10-21T01:16:09.950Z,18.52
2018-10-21T01:18:37.510Z,18.45
2018-10-21T01:21:05.152Z,18.80
2018-10-21T01:23:32.662Z,17.82
2018-10-21T01:26:00.145Z,18.65
2018-10-21T01:28:27.722Z,18.85
2018-10-21T01:30:55.180Z,17.65
2018-10-21T01:33:22.761Z,19.23
2018-10-21T01:35:50.252Z,18.62
2018-10-21T01:38:17.850Z,18.65
2018-10-21T01:40:46.425Z,18.20
2018-10-21T01:43:16.291Z,18.02
2018-10-21T01:45:43.855Z,18.20
2018-10-21T01:48:12.525Z,18.07
2018-10-21T01:50:39.989Z,20.90
2018-10-21T01:53:08.590Z,19.57
2018-10-21T01:55:36.220Z,19.05
2018-10-21T01:58:03.904Z,18.10
2018-10-21T02:00:32.202Z,19.32
2018-10-21T02:03:00.081Z,18.00
2018-10-21T02:05:27.914Z,20.23
2018-10-21T02:07:55.663Z,19.82
2018-10-21T02:10:23.295Z,19.70
2018-10-21T02:12:51.111Z,21.48
2018-10-21T02:15:18.784Z,20.92
2018-10-21T02:17:46.279Z,18.60
2018-10-21T02:20:14.609Z,18.37
2018-10-21T02:22:42.794Z,20.68
2018-10-21T02:25:10.481Z,22.02
2018-10-21T02:27:38.714Z,19.25
2018-10-21T02:30:09.442Z,21.75
2018-10-21T02:32:37.037Z,19.50
2018-10-21T02:35:05.624Z,18.82
2018-10-21T02:37:33.143Z,20.37
2018-10-21T02:40:00.994Z,18.70
2018-10-21T02:42:28.503Z,20.08
2018-10-21T02:44:56.110Z,20.35
2018-10-21T02:47:23.608Z,18.07
2018-10-21T02:49:51.127Z,18.65
2018-10-21T02:52:18.697Z,20.27
2018-10-21T02:54:46.211Z,19.23
2018-10-21T02:57:14.594Z,18.80
2018-10-21T02:59:42.045Z,19.80
2018-10-21T03:02:09.652Z,19.07
2018-10-21T03:04:37.138Z,19.07
2018-10-21T03:07:04.775Z,19.98
2018-10-21T03:09:32.543Z,20.32
2018-10-21T03:12:00.095Z,19.37
2018-10-21T03:14:27.650Z,21.07
2018-10-21T03:16:55.250Z,21.02
2018-10-21T03:19:22.824Z,19.80
2018-10-21T03:21:50.297Z,20.88
2018-10-21T03:24:18.099Z,21.60
2018-10-21T03:26:46.480Z,19.80
2018-10-21T03:29:13.965Z,21.42
2018-10-21T03:31:41.526Z,20.17
2018-10-21T03:34:09.219Z,19.70
2018-10-21T03:36:36.530Z,20.12
2018-10-21T03:39:06.439Z,19.00
2018-10-21T03:41:34.015Z,20.40
2018-10-21T03:44:02.126Z,19.82
2018-10-21T03:46:29.606Z,19.60
2018-10-21T03:48:57.153Z,19.52
2018-10-21T03:51:24.715Z,19.60
2018-10-21T03:53:52.293Z,21.05
2018-10-21T03:56:19.809Z,21.15
2018-10-21T03:58:47.356Z,21.23
2018-10-21T04:01:14.971Z,19.95
2018-10-21T04:03:42.438Z,19.45
2018-10-21T04:06:10.002Z,20.10
2018-10-21T04:08:37.496Z,20.37
2018-10-21T04:11:05.052Z,21.52
2018-10-21T04:13:32.514Z,20.77
2018-10-21T04:16:00.137Z,20.90
2018-10-21T04:18:27.554Z,20.80
2018-10-21T04:20:55.117Z,19.80
2018-10-21T04:23:22.587Z,19.75
2018-10-21T04:25:50.105Z,20.72
2018-10-21T04:28:17.664Z,20.72
2018-10-21T04:30:45.139Z,19.85
2018-10-21T04:33:18.310Z,22.42
2018-10-21T04:35:45.907Z,20.40
2018-10-21T04:38:26.924Z,21.60
2018-10-21T04:40:54.509Z,22.82
2018-10-21T04:43:22.131Z,22.35
2018-10-21T04:45:49.615Z,20.57
2018-10-21T04:48:17.184Z,20.20
2018-10-21T04:50:44.993Z,21.33
2018-10-21T04:53:12.642Z,21.10
2018-10-21T04:55:40.135Z,21.37
2018-10-21T04:58:07.763Z,22.87
2018-10-21T05:00:35.241Z,19.67
2018-10-21T05:03:03.881Z,19.48
2018-10-21T05:05:31.981Z,20.75
2018-10-21T05:07:59.534Z,20.32
2018-10-21T05:10:31.389Z,21.23
2018-10-21T05:12:58.969Z,21.00
2018-10-21T05:15:27.714Z,22.07
2018-10-21T05:17:55.429Z,20.77
2018-10-21T05:20:23.055Z,20.12
2018-10-21T05:22:50.650Z,20.15
2018-10-21T05:25:18.154Z,19.60
2018-10-21T05:27:45.659Z,19.57
2018-10-21T05:30:13.744Z,19.80
2018-10-21T05:32:41.566Z,19.45
2018-10-21T05:35:10.615Z,19.23
2018-10-21T05:37:38.609Z,20.43
2018-10-21T05:40:07.811Z,20.43
2018-10-21T05:42:35.289Z,18.30
2018-10-21T05:45:02.988Z,20.35
2018-10-21T05:47:30.453Z,19.90
2018-10-21T05:49:57.978Z,19.00
2018-10-21T05:52:25.454Z,20.72
2018-10-21T05:54:53.027Z,20.52
2018-10-21T05:57:20.539Z,20.02
2018-10-21T05:59:48.100Z,19.10
2018-10-21T06:02:15.569Z,19.90
2018-10-21T06:04:43.151Z,20.90
2018-10-21T06:07:10.653Z,21.10
2018-10-21T06:09:38.218Z,19.82
2018-10-21T06:12:05.799Z,20.85
2018-10-21T06:14:33.285Z,20.35
2018-10-21T06:17:06.554Z,19.92
2018-10-21T06:19:37.761Z,22.05
2018-10-21T06:22:05.355Z,21.57
2018-10-21T06:24:32.816Z,19.52
2018-10-21T06:27:00.906Z,20.62
2018-10-21T06:29:28.374Z,23.05
2018-10-21T06:31:55.937Z,23.05
2018-10-21T06:34:23.411Z,21.40
2018-10-21T06:36:51.101Z,20.43
2018-10-21T06:39:18.524Z,22.60
2018-10-21T06:41:46.098Z,22.67
2018-10-21T06:44:13.658Z,21.75
2018-10-21T06:46:41.202Z,20.65
2018-10-21T06:49:08.715Z,21.57
2018-10-21T06:51:36.234Z,22.50
2018-10-21T06:54:04.138Z,21.95
2018-10-21T06:56:31.757Z,20.85
2018-10-21T06:58:59.275Z,21.33
2018-10-21T07:01:26.838Z,20.97
2018-10-21T07:03:54.490Z,21.52
2018-10-21T07:06:23.269Z,22.65
2018-10-21T07:08:52.100Z,22.00
2018-10-21T07:11:19.667Z,23.45
2018-10-21T07:13:47.186Z,23.60
2018-10-21T07:16:15.041Z,26.10
2018-10-21T07:18:43.471Z,27.55
2018-10-21T07:21:10.980Z,28.65
2018-10-21T07:23:38.902Z,29.10
2018-10-21T07:26:06.417Z,29.92
2018-10-21T07:28:34.142Z,31.62
2018-10-21T07:31:01.726Z,31.75
2018-10-21T07:33:29.238Z,32.33
2018-10-21T07:35:57.036Z,32.08
2018-10-21T07:38:24.582Z,33.00
2018-10-21T07:40:52.168Z,32.17
2018-10-21T07:43:19.722Z,34.75
2018-10-21T07:45:47.340Z,33.83
2018-10-21T07:48:14.861Z,34.05
2018-10-21T07:50:42.445Z,34.13
2018-10-21T07:53:09.999Z,33.10
2018-10-21T07:55:37.569Z,32.80
2018-10-21T07:58:05.281Z,33.35
2018-10-21T08:00:32.802Z,30.92
2018-10-21T08:03:00.337Z,32.90
2018-10-21T08:05:39.376Z,28.87
2018-10-21T08:08:15.148Z,31.82
2018-10-21T08:10:42.813Z,33.00
2018-10-21T08:13:11.335Z,34.25
2018-10-21T08:15:39.481Z,34.33
2018-10-21T08:18:07.891Z,32.60
2018-10-21T08:20:35.599Z,35.15
2018-10-21T08:23:03.221Z,32.28
2018-10-21T08:25:30.783Z,34.65
2018-10-21T08:27:58.374Z,32.80
2018-10-21T08:30:25.879Z,35.75
2018-10-21T08:32:53.487Z,36.58
2018-10-21T08:35:21.513Z,37.95
2018-10-21T08:37:49.131Z,35.05
2018-10-21T08:40:16.692Z,36.50
2018-10-21T08:42:44.300Z,36.28
2018-10-21T08:45:11.871Z,34.92
2018-10-21T08:47:39.841Z,31.97
2018-10-21T08:50:09.335Z,31.02
2018-10-21T08:52:37.083Z,31.62
2018-10-21T08:55:05.601Z,33.08
2018-10-21T08:57:33.100Z,30.17
2018-10-21T09:00:00.864Z,29.80
2018-10-21T09:02:28.463Z,29.00
2018-10-21T09:04:55.986Z,30.60
2018-10-21T09:07:23.558Z,31.07
2018-10-21T09:09:51.225Z,29.90
2018-10-21T09:12:18.704Z,29.82
2018-10-21T09:14:47.295Z,30.17
2018-10-21T09:17:14.798Z,28.87
2018-10-21T09:19:42.412Z,28.87
2018-10-21T09:22:10.049Z,26.82
2018-10-21T09:24:37.636Z,27.20
2018-10-21T09:27:05.507Z,28.65
2018-10-21T09:29:34.091Z,24.70
2018-10-21T09:32:02.159Z,22.87
2018-10-21T09:34:29.848Z,21.73
2018-10-21T09:36:57.500Z,22.25
2018-10-21T09:39:25.095Z,21.57
2018-10-21T09:41:52.645Z,21.73
2018-10-21T09:44:20.362Z,22.40
2018-10-21T09:46:47.986Z,21.85
2018-10-21T09:49:15.668Z,21.40
2018-10-21T09:51:43.269Z,22.35
2018-10-21T09:54:10.857Z,21.75
2018-10-21T09:56:38.486Z,21.93
2018-10-21T09:59:06.837Z,22.10
2018-10-21T10:02:37.860Z,18.50
2018-10-21T10:05:06.134Z,16.87
2018-10-21T10:07:33.626Z,18.73
2018-10-21T10:10:01.459Z,17.87
2018-10-21T10:12:29.018Z,18.67
2018-10-21T10:14:56.617Z,17.32
2018-10-21T10:17:24.299Z,17.57
2018-10-21T10:19:51.861Z,18.17
2018-10-21T10:22:19.491Z,15.30
2018-10-21T10:24:47.070Z,16.27
2018-10-21T10:27:14.698Z,16.00
2018-10-21T10:29:42.247Z,16.17
2018-10-21T10:32:09.965Z,16.40
2018-10-21T10:34:37.562Z,15.85
2018-10-21T10:37:05.303Z,16.90
2018-10-21T10:39:32.841Z,15.43
2018-10-21T10:42:00.599Z,15.90
2018-10-21T10:44:28.132Z,15.90
2018-10-21T10:46:55.818Z,15.78
2018-10-21T10:49:23.460Z,14.45
2018-10-21T10:51:51.022Z,14.68
2018-10-21T10:54:18.579Z,13.70
2018-10-21T10:56:46.115Z,13.30
2018-10-21T10:59:13.734Z,12.95
2018-10-21T11:01:41.320Z,12.88
2018-10-21T11:04:09.006Z,13.08
2018-10-21T11:06:36.581Z,13.05
2018-10-21T11:09:07.023Z,11.55
2018-10-21T11:11:34.585Z,10.88
2018-10-21T11:14:02.211Z,10.50
2018-10-21T11:16:29.723Z,9.18
2018-10-21T11:18:58.414Z,10.10
2018-10-21T11:21:25.949Z,9.20
2018-10-21T11:23:53.572Z,8.05
2018-10-21T11:26:21.111Z,9.03
2018-10-21T11:28:48.721Z,8.08
2018-10-21T11:31:16.267Z,9.03
2018-10-21T11:33:43.857Z,9.73
2018-10-21T11:36:11.405Z,8.55
2018-10-21T11:38:39.049Z,9.50
2018-10-21T11:41:06.679Z,8.98
2018-10-21T11:43:34.308Z,9.80
2018-10-21T11:46:02.053Z,9.73
2018-10-21T11:48:29.722Z,9.48
2018-10-21T11:50:57.254Z,8.08
2018-10-21T11:53:24.812Z,9.00
2018-10-21T11:55:52.381Z,9.00
2018-10-21T11:58:19.902Z,9.93
2018-10-21T12:00:47.595Z,9.73
2018-10-21T12:03:15.185Z,9.10
2018-10-21T12:05:43.126Z,8.20
2018-10-21T12:08:11.086Z,8.50
2018-10-21T12:10:38.671Z,8.25
2018-10-21T12:13:06.498Z,8.20
2018-10-21T12:15:34.685Z,7.25
2018-10-21T12:18:02.340Z,8.30
2018-10-21T12:20:29.853Z,7.80
2018-10-21T12:22:57.626Z,7.53
2018-10-21T12:25:25.141Z,7.30
2018-10-21T12:27:52.753Z,7.75
2018-10-21T12:30:20.330Z,7.40
2018-10-21T12:32:47.973Z,7.78
2018-10-21T12:35:15.505Z,8.10
2018-10-21T12:37:43.050Z,9.00
2018-10-21T12:40:10.640Z,8.00
2018-10-21T12:42:38.522Z,6.72
2018-10-21T12:45:08.103Z,7.90
2018-10-21T12:47:35.744Z,7.40
2018-10-21T12:50:03.579Z,6.05
2018-10-21T12:52:31.166Z,6.65
2018-10-21T12:54:58.730Z,6.60
2018-10-21T12:57:26.257Z,6.40
2018-10-21T12:59:53.870Z,6.53
2018-10-21T13:02:21.437Z,5.70
2018-10-21T13:04:48.961Z,6.28
2018-10-21T13:07:16.630Z,5.35
2018-10-21T13:09:44.156Z,5.87
2018-10-21T13:12:11.699Z,5.35
2018-10-21T13:14:40.513Z,7.45
2018-10-21T13:17:08.925Z,5.85
2018-10-21T13:19:36.536Z,5.47
2018-10-21T13:22:04.180Z,6.22
2018-10-21T13:24:39.221Z,5.25
2018-10-21T13:27:08.508Z,5.33
2018-10-21T13:29:36.637Z,4.95
2018-10-21T13:32:04.996Z,4.92
2018-10-21T13:34:33.200Z,4.85
2018-10-21T13:37:01.703Z,4.65
2018-10-21T13:39:30.274Z,4.50
2018-10-21T13:41:58.286Z,4.15
2018-10-21T13:44:25.884Z,4.72
2018-10-21T13:46:53.533Z,4.28
2018-10-21T13:49:21.907Z,4.15
2018-10-21T13:51:49.851Z,4.33
2018-10-21T13:54:17.574Z,3.70
2018-10-21T13:56:46.159Z,3.98
2018-10-21T13:59:14.319Z,4.55
2018-10-21T14:01:42.005Z,4.72
2018-10-21T14:04:10.041Z,3.98
2018-10-21T14:06:37.842Z,5.00
2018-10-21T14:09:08.760Z,4.60
2018-10-21T14:11:37.492Z,4.85
2018-10-21T14:14:06.144Z,4.47
2018-10-21T14:16:34.024Z,4.10
2018-10-21T14:19:01.645Z,3.95
2018-10-21T14:21:29.491Z,4.42
2018-10-21T14:23:57.198Z,3.50
2018-10-21T14:26:24.798Z,4.12
2018-10-21T14:28:52.515Z,4.25
2018-10-21T14:31:20.120Z,3.47
2018-10-21T14:33:47.763Z,3.80
2018-10-21T14:36:15.382Z,4.65
2018-10-21T14:38:42.953Z,5.35
2018-10-21T14:41:10.512Z,4.60
2018-10-21T14:43:38.283Z,5.10
2018-10-21T14:46:06.161Z,5.05
2018-10-21T14:48:33.738Z,4.33
2018-10-21T14:51:01.517Z,8.00
2018-10-21T14:53:29.201Z,5.60
2018-10-21T14:55:56.820Z,4.40
2018-10-21T14:58:24.399Z,10.53
2018-10-21T15:00:51.910Z,4.40
2018-10-21T15:03:19.481Z,3.58
2018-10-21T15:05:47.116Z,10.80
2018-10-21T15:08:14.841Z,5.83
2018-10-21T15:10:42.430Z,3.77
2018-10-21T15:13:09.984Z,3.35
2018-10-21T15:15:37.693Z,3.75
2018-10-21T15:18:11.358Z,4.08
2018-10-21T15:20:38.932Z,6.83
2018-10-21T15:23:06.586Z,4.65
2018-10-21T15:25:34.097Z,3.83
2018-10-21T15:28:01.652Z,3.60
2018-10-21T15:33:51.818Z,3.00
2018-10-21T15:36:20.032Z,5.55
2018-10-21T15:38:49.953Z,3.42
2018-10-21T15:41:17.549Z,3.85
2018-10-21T15:43:45.202Z,3.30
2018-10-21T15:46:12.862Z,8.85
2018-10-21T15:48:40.363Z,7.78
2018-10-21T15:51:07.997Z,6.03
2018-10-21T15:53:36.157Z,7.78
2018-10-21T15:56:04.911Z,5.28
2018-10-21T15:58:39.743Z,4.60
2018-10-21T16:02:33.542Z,3.15
2018-10-21T16:05:01.371Z,2.77
2018-10-21T16:07:28.991Z,2.37
2018-10-21T16:09:56.629Z,2.90
2018-10-21T16:12:24.258Z,2.90
2018-10-21T16:14:51.830Z,3.00
2018-10-21T16:17:19.472Z,3.33
2018-10-21T16:19:47.103Z,3.87
2018-10-21T16:22:14.634Z,3.45
2018-10-21T16:24:42.172Z,2.80
2018-10-21T16:27:09.800Z,3.12
2018-10-21T16:29:37.374Z,3.50
2018-10-21T16:32:05.357Z,3.65
2018-10-21T16:34:32.816Z,3.80
2018-10-21T16:37:00.435Z,3.02
2018-10-21T16:39:27.938Z,3.15
2018-10-21T16:41:55.556Z,3.30
2018-10-21T16:44:23.258Z,3.20
2018-10-21T16:46:50.831Z,3.10
2018-10-21T16:49:18.414Z,3.05
2018-10-21T16:51:46.013Z,3.05
2018-10-21T16:54:13.702Z,2.80
2018-10-21T16:56:41.150Z,3.60
2018-10-21T16:59:08.829Z,3.30
2018-10-21T17:01:36.415Z,3.40
2018-10-21T17:04:04.173Z,3.00
2018-10-21T17:06:31.752Z,3.20
2018-10-21T17:08:59.393Z,3.00
2018-10-21T17:11:26.829Z,3.17
2018-10-21T17:13:54.517Z,3.62
2018-10-21T17:16:22.126Z,4.10
2018-10-21T17:18:49.770Z,3.60
2018-10-21T17:21:17.436Z,3.65
2018-10-21T17:23:45.115Z,3.50
2018-10-21T17:26:12.677Z,3.70
2018-10-21T17:28:40.261Z,3.30
2018-10-21T17:31:07.937Z,3.98
2018-10-21T17:33:35.457Z,3.35
2018-10-21T17:36:03.134Z,3.08
2018-10-21T17:38:30.671Z,3.40
2018-10-21T17:40:58.354Z,3.67
2018-10-21T17:43:26.021Z,3.30
2018-10-21T17:45:53.662Z,3.20
2018-10-21T17:48:21.236Z,3.10
2018-10-21T17:50:48.896Z,3.95
2018-10-21T17:53:16.425Z,3.27
2018-10-21T17:55:44.163Z,3.20
2018-10-21T17:58:11.925Z,3.60
2018-10-21T18:00:39.434Z,3.05
2018-10-21T18:03:07.081Z,3.47
2018-10-21T18:05:34.693Z,3.60
2018-10-21T18:08:08.676Z,2.80
2018-10-21T18:10:39.677Z,3.33
2018-10-21T18:13:22.942Z,3.80
2018-10-21T18:15:54.472Z,3.58
2018-10-21T18:18:27.441Z,3.70
2018-10-21T18:20:55.138Z,3.77
2018-10-21T18:23:22.842Z,3.42
2018-10-21T18:25:50.517Z,3.75
2018-10-21T18:28:18.194Z,3.85
2018-10-21T18:30:45.752Z,3.87
2018-10-21T18:33:17.526Z,3.62
2018-10-21T18:35:55.069Z,3.60
2018-10-21T18:38:25.916Z,3.75
2018-10-21T18:40:54.323Z,3.80
2018-10-21T18:43:22.021Z,3.80
2018-10-21T18:45:49.582Z,3.50
2018-10-21T18:48:17.274Z,3.98
2018-10-21T18:50:44.847Z,3.83
2018-10-21T18:53:12.381Z,3.80
2018-10-21T18:55:40.037Z,4.30
2018-10-21T18:58:07.729Z,4.12
2018-10-21T19:00:35.283Z,4.25
2018-10-21T19:03:02.888Z,3.92
2018-10-21T19:05:30.569Z,4.35
2018-10-21T19:07:58.127Z,4.40
2018-10-21T19:10:25.856Z,3.92
2018-10-21T19:13:00.046Z,3.75
2018-10-21T19:15:21.024Z,4.08
2018-10-21T19:17:48.557Z,4.25
2018-10-21T19:20:16.691Z,4.92
2018-10-21T19:22:44.283Z,4.22
2018-10-21T19:25:13.470Z,4.60
2018-10-21T19:27:41.583Z,4.50
2018-10-21T19:30:10.246Z,4.50
2018-10-21T19:32:37.968Z,4.78
2018-10-21T19:35:06.219Z,4.92
2018-10-21T19:37:33.863Z,4.78
2018-10-21T19:40:01.452Z,4.78
2018-10-21T19:42:29.073Z,4.50
2018-10-21T19:44:56.789Z,4.35
2018-10-21T19:47:24.439Z,4.97
2018-10-21T19:49:51.994Z,4.37
2018-10-21T19:52:19.620Z,4.85
2018-10-21T19:54:47.142Z,4.28
2018-10-21T19:57:14.773Z,5.15
2018-10-21T19:59:42.293Z,5.10
2018-10-21T20:02:09.942Z,4.97
2018-10-21T20:04:37.502Z,5.25
2018-10-21T20:07:05.343Z,5.33
2018-10-21T20:09:32.815Z,5.22
2018-10-21T20:12:00.413Z,5.15
2018-10-21T20:14:28.036Z,4.87
2018-10-21T20:16:55.576Z,5.37
2018-10-21T20:19:23.231Z,5.35
2018-10-21T20:21:50.767Z,5.87
2018-10-21T20:24:18.397Z,5.67
2018-10-21T20:26:45.975Z,5.53
2018-10-21T20:29:13.633Z,5.75
2018-10-21T20:31:49.577Z,5.85
2018-10-21T20:34:17.312Z,5.33
2018-10-21T20:36:44.794Z,5.90
2018-10-21T20:39:12.405Z,5.83
2018-10-21T20:41:39.951Z,5.15
2018-10-21T20:44:07.742Z,5.53
2018-10-21T20:46:35.444Z,5.75
2018-10-21T20:49:03.051Z,5.45
2018-10-21T20:52:00.239Z,5.72
2018-10-21T20:54:56.875Z,5.40
2018-10-21T20:57:37.390Z,6.03
2018-10-21T21:00:10.881Z,5.60
2018-10-21T21:02:43.045Z,5.75
2018-10-21T21:05:10.680Z,5.92
2018-10-21T21:07:38.308Z,5.95
2018-10-21T21:10:06.489Z,5.83
2018-10-21T21:12:34.117Z,5.70
2018-10-21T21:15:02.047Z,7.78
2018-10-21T21:17:29.618Z,5.95
2018-10-21T21:19:57.139Z,6.30
2018-10-21T21:22:24.770Z,7.10
2018-10-21T21:24:52.278Z,6.62
2018-10-21T21:27:19.905Z,6.58
2018-10-21T21:29:47.490Z,7.03
2018-10-21T21:32:15.094Z,7.00
2018-10-21T21:34:42.591Z,6.45
2018-10-21T21:37:10.187Z,7.72
2018-10-21T21:39:37.774Z,6.50
2018-10-21T21:42:05.406Z,7.35
2018-10-21T21:44:32.973Z,7.45
2018-10-21T21:47:00.978Z,8.20
2018-10-21T21:49:28.561Z,9.15
2018-10-21T21:51:56.162Z,7.65
2018-10-21T21:54:23.595Z,7.90
2018-10-21T21:56:51.176Z,7.72
2018-10-21T21:59:18.736Z,7.72
2018-10-21T22:01:46.238Z,7.58
2018-10-21T22:04:13.863Z,8.00
2018-10-21T22:06:41.374Z,7.65
2018-10-21T22:09:10.691Z,8.40
2018-10-21T22:11:38.581Z,8.15
2018-10-21T22:14:06.402Z,7.85
2018-10-21T22:16:33.896Z,7.67
2018-10-21T22:19:01.490Z,7.83
2018-10-21T22:21:29.006Z,8.38
2018-10-21T22:23:56.568Z,7.83
2018-10-21T22:26:24.072Z,7.65
2018-10-21T22:28:51.669Z,7.97
2018-10-21T22:31:19.174Z,7.65
2018-10-21T22:33:46.726Z,7.80
2018-10-21T22:36:14.298Z,7.15
2018-10-21T22:38:41.780Z,7.87
2018-10-21T22:41:09.263Z,8.03
2018-10-21T22:43:36.919Z,7.47
2018-10-21T22:46:04.708Z,6.72
2018-10-21T22:48:32.232Z,8.08
2018-10-21T22:50:59.766Z,7.55
2018-10-21T22:53:27.218Z,8.08
2018-10-21T22:55:54.790Z,7.97
2018-10-21T22:58:22.301Z,7.67
2018-10-21T23:00:49.855Z,7.75
2018-10-21T23:03:17.334Z,7.50
2018-10-21T23:05:44.918Z,8.30
2018-10-21T23:08:13.119Z,8.58
2018-10-21T23:10:40.680Z,8.10
2018-10-21T23:13:08.160Z,7.92
2018-10-21T23:15:35.726Z,8.03
2018-10-21T23:18:03.211Z,7.70
2018-10-21T23:20:30.818Z,7.35
2018-10-21T23:22:58.351Z,8.05
2018-10-21T23:25:25.809Z,7.87
2018-10-21T23:27:53.383Z,7.95
2018-10-21T23:30:20.917Z,8.35
2018-10-21T23:32:48.396Z,7.97
2018-10-21T23:35:15.868Z,7.55
2018-10-21T23:37:43.409Z,8.28
2018-10-21T23:40:10.906Z,8.58
2018-10-21T23:42:38.450Z,8.08
2018-10-21T23:45:06.057Z,7.75
2018-10-21T23:47:33.633Z,7.60
2018-10-21T23:50:01.319Z,8.45
2018-10-21T23:52:28.869Z,8.55
2018-10-21T23:54:56.318Z,8.75
2018-10-21T23:57:23.769Z,7.15
2018-10-21T23:59:51.314Z,9.43
